sensor_id;sensor_type;location;lat;lon;timestamp;pressure;altitude;pressure_sealevel;temperature;humidity
79362;BME280;68830;47.566;19.012;2023-04-24T00:00:23;99171.41;;;11.99;59.16
79362;BME280;68830;47.566;19.012;2023-04-24T00:03:25;99183.97;;;12.05;58.07
79362;BME280;68830;47.566;19.012;2023-04-24T00:06:29;99194.28;;;12.23;59.46
79362;BME280;68830;47.566;19.012;2023-04-24T00:09:39;99193.28;;;12.24;58.63
79362;BME280;68830;47.566;19.012;2023-04-24T00:12:41;99196.41;;;12.27;59.66
79362;BME280;68830;47.566;19.012;2023-04-24T00:15:43;99198.53;;;12.32;58.19
79362;BME280;68830;47.566;19.012;2023-04-24T00:18:45;99203.13;;;12.38;58.57
79362;BME280;68830;47.566;19.012;2023-04-24T00:21:48;99209.94;;;12.55;60.19
79362;BME280;68830;47.566;19.012;2023-04-24T00:24:53;99194.00;;;12.41;58.86
79362;BME280;68830;47.566;19.012;2023-04-24T00:27:55;99196.31;;;12.59;58.11
79362;BME280;68830;47.566;19.012;2023-04-24T00:30:57;99196.81;;;12.77;57.80
79362;BME280;68830;47.566;19.012;2023-04-24T00:33:59;99180.13;;;12.83;55.61
79362;BME280;68830;47.566;19.012;2023-04-24T00:37:02;99183.09;;;12.88;56.40
79362;BME280;68830;47.566;19.012;2023-04-24T00:40:05;99182.25;;;12.88;56.33
79362;BME280;68830;47.566;19.012;2023-04-24T00:43:09;99180.75;;;12.85;56.32
79362;BME280;68830;47.566;19.012;2023-04-24T00:46:11;99154.88;;;13.02;54.28
79362;BME280;68830;47.566;19.012;2023-04-24T00:49:14;99155.97;;;13.22;54.58
79362;BME280;68830;47.566;19.012;2023-04-24T00:52:17;99182.09;;;13.48;54.65
79362;BME280;68830;47.566;19.012;2023-04-24T00:55:23;99157.03;;;13.42;54.34
79362;BME280;68830;47.566;19.012;2023-04-24T00:58:26;99180.88;;;13.51;56.10
79362;BME280;68830;47.566;19.012;2023-04-24T01:01:29;99172.09;;;13.50;55.71
79362;BME280;68830;47.566;19.012;2023-04-24T01:04:32;99178.31;;;13.42;56.19
79362;BME280;68830;47.566;19.012;2023-04-24T01:07:36;99183.00;;;13.40;56.72
79362;BME280;68830;47.566;19.012;2023-04-24T01:10:40;99175.78;;;13.34;57.38
79362;BME280;68830;47.566;19.012;2023-04-24T01:13:42;99161.47;;;13.35;56.53
79362;BME280;68830;47.566;19.012;2023-04-24T01:16:44;99171.09;;;13.36;57.21
79362;BME280;68830;47.566;19.012;2023-04-24T01:19:47;99139.38;;;13.20;57.54
79362;BME280;68830;47.566;19.012;2023-04-24T01:22:50;99168.63;;;13.35;57.95
79362;BME280;68830;47.566;19.012;2023-04-24T01:25:53;99157.63;;;13.23;58.92
79362;BME280;68830;47.566;19.012;2023-04-24T01:28:55;99158.63;;;13.22;58.96
79362;BME280;68830;47.566;19.012;2023-04-24T01:31:58;99160.09;;;13.25;59.18
79362;BME280;68830;47.566;19.012;2023-04-24T01:35:00;99147.69;;;13.17;58.65
79362;BME280;68830;47.566;19.012;2023-04-24T01:38:04;99167.50;;;13.29;58.20
79362;BME280;68830;47.566;19.012;2023-04-24T01:41:07;99158.50;;;13.30;58.24
79362;BME280;68830;47.566;19.012;2023-04-24T01:44:09;99139.19;;;13.22;58.35
79362;BME280;68830;47.566;19.012;2023-04-24T01:47:12;99148.69;;;13.31;58.36
79362;BME280;68830;47.566;19.012;2023-04-24T01:50:13;99153.38;;;13.29;60.48
79362;BME280;68830;47.566;19.012;2023-04-24T01:53:17;99149.47;;;13.25;63.79
79362;BME280;68830;47.566;19.012;2023-04-24T01:56:19;99144.38;;;13.00;66.95
79362;BME280;68830;47.566;19.012;2023-04-24T01:59:23;99137.72;;;12.90;67.28
79362;BME280;68830;47.566;19.012;2023-04-24T02:02:26;99137.63;;;12.83;65.57
79362;BME280;68830;47.566;19.012;2023-04-24T02:05:29;99117.91;;;12.63;69.49
79362;BME280;68830;47.566;19.012;2023-04-24T02:08:33;99122.13;;;12.57;70.17
79362;BME280;68830;47.566;19.012;2023-04-24T02:11:35;99121.75;;;12.60;69.14
79362;BME280;68830;47.566;19.012;2023-04-24T02:14:36;99115.44;;;12.46;71.00
79362;BME280;68830;47.566;19.012;2023-04-24T02:17:38;99116.25;;;12.47;71.31
79362;BME280;68830;47.566;19.012;2023-04-24T02:20:41;99105.00;;;12.45;71.92
79362;BME280;68830;47.566;19.012;2023-04-24T02:23:44;99103.72;;;12.41;71.85
79362;BME280;68830;47.566;19.012;2023-04-24T02:26:46;99103.22;;;12.37;72.08
79362;BME280;68830;47.566;19.012;2023-04-24T02:29:48;99080.78;;;12.25;73.00
79362;BME280;68830;47.566;19.012;2023-04-24T02:32:50;99099.94;;;12.35;72.38
79362;BME280;68830;47.566;19.012;2023-04-24T02:35:53;99094.44;;;12.37;70.35
79362;BME280;68830;47.566;19.012;2023-04-24T02:38:57;99097.91;;;12.37;71.75
79362;BME280;68830;47.566;19.012;2023-04-24T02:41:59;99092.22;;;12.40;72.62
79362;BME280;68830;47.566;19.012;2023-04-24T02:45:01;99089.44;;;12.56;70.47
79362;BME280;68830;47.566;19.012;2023-04-24T02:48:03;99087.06;;;12.62;71.25
79362;BME280;68830;47.566;19.012;2023-04-24T02:51:05;99085.94;;;12.71;68.65
79362;BME280;68830;47.566;19.012;2023-04-24T02:54:10;99085.84;;;12.79;67.22
79362;BME280;68830;47.566;19.012;2023-04-24T02:57:12;99098.06;;;12.88;65.51
79362;BME280;68830;47.566;19.012;2023-04-24T03:00:15;99075.59;;;12.76;68.14
79362;BME280;68830;47.566;19.012;2023-04-24T03:03:17;99088.88;;;12.76;70.19
79362;BME280;68830;47.566;19.012;2023-04-24T03:06:19;99086.50;;;12.66;70.74
79362;BME280;68830;47.566;19.012;2023-04-24T03:09:25;99086.03;;;12.63;71.39
79362;BME280;68830;47.566;19.012;2023-04-24T03:12:26;99075.78;;;12.45;72.23
79362;BME280;68830;47.566;19.012;2023-04-24T03:15:29;99066.69;;;12.39;71.31
79362;BME280;68830;47.566;19.012;2023-04-24T03:18:31;99063.22;;;12.39;70.38
79362;BME280;68830;47.566;19.012;2023-04-24T03:21:33;99069.34;;;12.39;70.78
79362;BME280;68830;47.566;19.012;2023-04-24T03:24:37;99071.56;;;12.50;69.92
79362;BME280;68830;47.566;19.012;2023-04-24T03:27:38;99075.88;;;12.66;68.11
79362;BME280;68830;47.566;19.012;2023-04-24T03:30:41;99057.00;;;12.46;70.27
79362;BME280;68830;47.566;19.012;2023-04-24T03:33:43;99073.59;;;12.63;71.15
79362;BME280;68830;47.566;19.012;2023-04-24T03:36:45;99080.09;;;12.61;70.29
79362;BME280;68830;47.566;19.012;2023-04-24T03:39:51;99080.91;;;12.61;71.02
79362;BME280;68830;47.566;19.012;2023-04-24T03:42:52;99064.97;;;12.46;72.75
79362;BME280;68830;47.566;19.012;2023-04-24T03:45:55;99073.22;;;12.51;71.75
79362;BME280;68830;47.566;19.012;2023-04-24T03:48:57;99076.44;;;12.62;70.41
79362;BME280;68830;47.566;19.012;2023-04-24T03:51:59;99069.09;;;12.64;71.31
79362;BME280;68830;47.566;19.012;2023-04-24T03:55:03;99063.34;;;12.60;68.66
79362;BME280;68830;47.566;19.012;2023-04-24T03:58:05;99062.50;;;12.60;70.19
79362;BME280;68830;47.566;19.012;2023-04-24T04:01:07;99079.97;;;12.54;70.08
79362;BME280;68830;47.566;19.012;2023-04-24T04:04:09;99074.59;;;12.47;70.13
79362;BME280;68830;47.566;19.012;2023-04-24T04:07:11;99078.34;;;12.68;68.70
79362;BME280;68830;47.566;19.012;2023-04-24T04:10:15;99077.13;;;12.70;69.97
79362;BME280;68830;47.566;19.012;2023-04-24T04:13:18;99078.34;;;12.68;69.82
79362;BME280;68830;47.566;19.012;2023-04-24T04:16:20;99085.13;;;12.70;69.24
79362;BME280;68830;47.566;19.012;2023-04-24T04:19:22;99075.78;;;12.74;68.26
79362;BME280;68830;47.566;19.012;2023-04-24T04:22:24;99073.03;;;12.82;68.66
79362;BME280;68830;47.566;19.012;2023-04-24T04:25:28;99056.63;;;12.79;68.60
79362;BME280;68830;47.566;19.012;2023-04-24T04:28:30;99061.66;;;12.89;67.89
79362;BME280;68830;47.566;19.012;2023-04-24T04:31:33;99063.19;;;12.98;66.42
79362;BME280;68830;47.566;19.012;2023-04-24T04:34:35;99064.94;;;13.05;65.45
79362;BME280;68830;47.566;19.012;2023-04-24T04:37:39;99074.38;;;13.08;66.42
79362;BME280;68830;47.566;19.012;2023-04-24T04:40:44;99076.47;;;13.12;66.70
79362;BME280;68830;47.566;19.012;2023-04-24T04:43:46;99070.25;;;13.05;68.13
79362;BME280;68830;47.566;19.012;2023-04-24T04:46:49;99069.16;;;13.00;68.10
79362;BME280;68830;47.566;19.012;2023-04-24T04:49:51;99065.78;;;13.06;67.87
79362;BME280;68830;47.566;19.012;2023-04-24T04:52:53;99062.91;;;13.07;68.14
79362;BME280;68830;47.566;19.012;2023-04-24T04:55:56;99051.91;;;13.10;67.87
79362;BME280;68830;47.566;19.012;2023-04-24T04:58:59;99044.56;;;13.12;68.43
79362;BME280;68830;47.566;19.012;2023-04-24T05:02:01;99051.66;;;13.20;67.88
79362;BME280;68830;47.566;19.012;2023-04-24T05:05:03;99051.97;;;13.32;67.90
79362;BME280;68830;47.566;19.012;2023-04-24T05:08:06;99037.41;;;13.28;66.85
79362;BME280;68830;47.566;19.012;2023-04-24T05:11:22;99036.66;;;13.34;67.35
79362;BME280;68830;47.566;19.012;2023-04-24T05:14:24;99040.09;;;13.49;67.73
79362;BME280;68830;47.566;19.012;2023-04-24T05:17:26;99043.38;;;13.51;66.89
79362;BME280;68830;47.566;19.012;2023-04-24T05:20:28;99045.28;;;13.57;66.03
79362;BME280;68830;47.566;19.012;2023-04-24T05:23:30;99045.28;;;13.57;66.17
79362;BME280;68830;47.566;19.012;2023-04-24T05:26:33;99048.38;;;13.61;65.13
79362;BME280;68830;47.566;19.012;2023-04-24T05:29:37;99051.31;;;13.66;64.70
79362;BME280;68830;47.566;19.012;2023-04-24T05:32:39;99044.59;;;13.70;64.66
79362;BME280;68830;47.566;19.012;2023-04-24T05:35:41;99048.25;;;13.69;64.13
79362;BME280;68830;47.566;19.012;2023-04-24T05:38:49;99055.84;;;13.72;64.09
79362;BME280;68830;47.566;19.012;2023-04-24T05:41:53;99052.50;;;13.85;65.12
79362;BME280;68830;47.566;19.012;2023-04-24T05:44:55;99050.69;;;13.92;63.91
79362;BME280;68830;47.566;19.012;2023-04-24T05:47:59;99048.84;;;13.92;64.13
79362;BME280;68830;47.566;19.012;2023-04-24T05:51:01;99051.81;;;14.04;64.13
79362;BME280;68830;47.566;19.012;2023-04-24T05:54:03;99050.06;;;14.11;64.98
79362;BME280;68830;47.566;19.012;2023-04-24T05:57:06;99051.09;;;14.17;64.34
79362;BME280;68830;47.566;19.012;2023-04-24T06:00:10;99049.38;;;14.30;65.02
79362;BME280;68830;47.566;19.012;2023-04-24T06:03:14;98985.22;;;13.05;67.90
79362;BME280;68830;47.566;19.012;2023-04-24T06:06:16;98993.75;;;12.86;69.82
79362;BME280;68830;47.566;19.012;2023-04-24T06:09:19;98987.91;;;12.91;70.79
79362;BME280;68830;47.566;19.012;2023-04-24T06:12:22;98969.06;;;12.71;70.03
79362;BME280;68830;47.566;19.012;2023-04-24T06:15:25;98970.31;;;12.90;70.77
79362;BME280;68830;47.566;19.012;2023-04-24T06:18:27;98984.88;;;12.94;70.84
79362;BME280;68830;47.566;19.012;2023-04-24T06:21:30;98990.25;;;13.00;71.19
79362;BME280;68830;47.566;19.012;2023-04-24T06:24:34;98967.97;;;13.01;71.69
79362;BME280;68830;47.566;19.012;2023-04-24T06:27:37;98990.75;;;13.25;72.09
79362;BME280;68830;47.566;19.012;2023-04-24T06:30:40;99034.31;;;13.09;71.58
79362;BME280;68830;47.566;19.012;2023-04-24T06:33:42;99029.56;;;13.62;69.84
79362;BME280;68830;47.566;19.012;2023-04-24T06:36:46;99031.63;;;14.10;67.64
79362;BME280;68830;47.566;19.012;2023-04-24T06:39:48;99055.94;;;14.62;66.74
79362;BME280;68830;47.566;19.012;2023-04-24T06:42:52;99040.25;;;14.81;65.57
79362;BME280;68830;47.566;19.012;2023-04-24T06:45:54;99033.34;;;15.00;65.37
79362;BME280;68830;47.566;19.012;2023-04-24T06:48:56;99043.66;;;15.16;64.40
79362;BME280;68830;47.566;19.012;2023-04-24T06:51:58;99033.44;;;15.26;64.17
79362;BME280;68830;47.566;19.012;2023-04-24T06:55:00;99030.00;;;15.32;64.73
79362;BME280;68830;47.566;19.012;2023-04-24T06:58:04;99021.38;;;15.43;64.37
79362;BME280;68830;47.566;19.012;2023-04-24T07:01:07;99054.91;;;15.72;62.84
79362;BME280;68830;47.566;19.012;2023-04-24T07:04:09;99017.97;;;14.54;64.52
79362;BME280;68830;47.566;19.012;2023-04-24T07:07:12;99026.63;;;14.28;66.83
79362;BME280;68830;47.566;19.012;2023-04-24T07:10:15;99027.75;;;14.12;66.73
79362;BME280;68830;47.566;19.012;2023-04-24T07:13:19;99005.25;;;14.21;66.62
79362;BME280;68830;47.566;19.012;2023-04-24T07:16:21;99017.22;;;14.32;66.78
79362;BME280;68830;47.566;19.012;2023-04-24T07:19:24;99023.22;;;14.41;66.06
79362;BME280;68830;47.566;19.012;2023-04-24T07:22:26;99009.66;;;14.35;65.93
79362;BME280;68830;47.566;19.012;2023-04-24T07:25:28;99016.38;;;14.31;66.03
79362;BME280;68830;47.566;19.012;2023-04-24T07:28:31;99014.28;;;14.55;67.43
79362;BME280;68830;47.566;19.012;2023-04-24T07:31:33;99022.13;;;14.63;67.00
79362;BME280;68830;47.566;19.012;2023-04-24T07:34:36;99022.13;;;14.63;64.87
79362;BME280;68830;47.566;19.012;2023-04-24T07:37:38;99024.94;;;14.55;65.38
79362;BME280;68830;47.566;19.012;2023-04-24T07:40:39;98990.44;;;14.40;65.40
79362;BME280;68830;47.566;19.012;2023-04-24T07:43:44;99008.81;;;14.63;66.21
79362;BME280;68830;47.566;19.012;2023-04-24T07:46:46;99007.78;;;14.64;65.89
79362;BME280;68830;47.566;19.012;2023-04-24T07:49:49;99015.75;;;14.57;66.17
79362;BME280;68830;47.566;19.012;2023-04-24T07:52:50;99002.50;;;14.71;66.32
79362;BME280;68830;47.566;19.012;2023-04-24T07:55:54;99018.00;;;15.02;65.79
79362;BME280;68830;47.566;19.012;2023-04-24T07:58:57;99008.00;;;15.23;65.53
79362;BME280;68830;47.566;19.012;2023-04-24T08:01:59;99011.53;;;15.57;64.53
79362;BME280;68830;47.566;19.012;2023-04-24T08:05:03;99004.00;;;15.80;63.78
79362;BME280;68830;47.566;19.012;2023-04-24T08:08:05;98989.44;;;15.63;63.98
79362;BME280;68830;47.566;19.012;2023-04-24T08:11:08;99003.56;;;15.77;64.19
79362;BME280;68830;47.566;19.012;2023-04-24T08:14:11;99005.84;;;15.87;63.11
79362;BME280;68830;47.566;19.012;2023-04-24T08:17:16;99012.22;;;15.99;64.52
79362;BME280;68830;47.566;19.012;2023-04-24T08:20:18;99008.25;;;16.21;64.62
79362;BME280;68830;47.566;19.012;2023-04-24T08:23:20;99001.72;;;16.10;62.97
79362;BME280;68830;47.566;19.012;2023-04-24T08:26:22;98998.84;;;16.12;64.93
79362;BME280;68830;47.566;19.012;2023-04-24T08:29:25;98989.94;;;16.44;62.99
79362;BME280;68830;47.566;19.012;2023-04-24T08:32:29;98997.97;;;16.44;62.99
79362;BME280;68830;47.566;19.012;2023-04-24T08:35:31;99005.97;;;16.44;63.78
79362;BME280;68830;47.566;19.012;2023-04-24T08:38:33;99003.47;;;16.50;62.45
79362;BME280;68830;47.566;19.012;2023-04-24T08:41:36;99013.31;;;16.69;62.49
79362;BME280;68830;47.566;19.012;2023-04-24T08:44:40;99008.69;;;17.02;61.61
79362;BME280;68830;47.566;19.012;2023-04-24T08:47:42;99007.72;;;16.84;61.54
79362;BME280;68830;47.566;19.012;2023-04-24T08:50:46;99001.03;;;16.48;61.15
79362;BME280;68830;47.566;19.012;2023-04-24T08:53:51;99011.63;;;16.81;61.55
79362;BME280;68830;47.566;19.012;2023-04-24T08:56:55;99013.88;;;16.91;60.10
79362;BME280;68830;47.566;19.012;2023-04-24T09:00:02;99014.81;;;17.10;59.70
79362;BME280;68830;47.566;19.012;2023-04-24T09:03:05;98989.97;;;17.34;59.62
79362;BME280;68830;47.566;19.012;2023-04-24T09:06:08;98988.88;;;17.42;58.91
79362;BME280;68830;47.566;19.012;2023-04-24T09:09:11;98990.81;;;17.59;60.17
79362;BME280;68830;47.566;19.012;2023-04-24T09:12:14;99003.75;;;17.69;57.12
79362;BME280;68830;47.566;19.012;2023-04-24T09:15:18;98999.97;;;17.14;58.50
79362;BME280;68830;47.566;19.012;2023-04-24T09:18:20;98990.16;;;17.01;58.77
79362;BME280;68830;47.566;19.012;2023-04-24T09:21:22;98987.69;;;16.99;58.36
79362;BME280;68830;47.566;19.012;2023-04-24T09:24:24;98990.81;;;17.28;58.13
79362;BME280;68830;47.566;19.012;2023-04-24T09:27:28;98974.84;;;17.15;58.30
79362;BME280;68830;47.566;19.012;2023-04-24T09:30:31;98977.78;;;17.38;57.94
79362;BME280;68830;47.566;19.012;2023-04-24T09:33:33;98978.47;;;17.27;58.66
79362;BME280;68830;47.566;19.012;2023-04-24T09:36:37;98977.81;;;17.70;55.89
79362;BME280;68830;47.566;19.012;2023-04-24T09:39:39;98962.06;;;18.23;55.60
79362;BME280;68830;47.566;19.012;2023-04-24T09:42:51;98955.56;;;18.12;54.70
79362;BME280;68830;47.566;19.012;2023-04-24T09:45:57;98954.03;;;18.23;54.55
79362;BME280;68830;47.566;19.012;2023-04-24T09:49:07;98962.53;;;18.38;52.89
79362;BME280;68830;47.566;19.012;2023-04-24T09:52:11;98961.63;;;18.44;54.49
79362;BME280;68830;47.566;19.012;2023-04-24T09:55:18;98951.34;;;18.23;54.35
79362;BME280;68830;47.566;19.012;2023-04-24T09:58:24;98956.75;;;18.16;56.14
79362;BME280;68830;47.566;19.012;2023-04-24T10:01:32;98948.28;;;18.19;55.08
79362;BME280;68830;47.566;19.012;2023-04-24T10:04:34;98948.25;;;18.01;55.17
79362;BME280;68830;47.566;19.012;2023-04-24T10:07:37;98957.78;;;17.97;55.27
79362;BME280;68830;47.566;19.012;2023-04-24T10:10:42;98956.03;;;18.09;52.57
79362;BME280;68830;47.566;19.012;2023-04-24T10:13:44;98951.72;;;18.27;52.62
79362;BME280;68830;47.566;19.012;2023-04-24T10:16:48;98937.09;;;18.04;52.85
79362;BME280;68830;47.566;19.012;2023-04-24T10:19:51;98957.22;;;18.50;53.44
79362;BME280;68830;47.566;19.012;2023-04-24T10:22:55;98959.84;;;18.75;52.72
79362;BME280;68830;47.566;19.012;2023-04-24T10:25:58;98947.63;;;18.42;52.37
79362;BME280;68830;47.566;19.012;2023-04-24T10:29:05;98935.28;;;18.23;53.66
79362;BME280;68830;47.566;19.012;2023-04-24T10:32:12;98933.31;;;18.30;53.71
79362;BME280;68830;47.566;19.012;2023-04-24T10:35:15;98927.66;;;18.20;53.42
79362;BME280;68830;47.566;19.012;2023-04-24T10:38:24;98955.13;;;18.15;54.53
79362;BME280;68830;47.566;19.012;2023-04-24T10:41:27;98940.53;;;18.11;54.25
79362;BME280;68830;47.566;19.012;2023-04-24T10:44:36;98944.31;;;18.22;54.35
79362;BME280;68830;47.566;19.012;2023-04-24T10:47:42;98926.47;;;17.98;54.61
79362;BME280;68830;47.566;19.012;2023-04-24T10:50:47;98944.78;;;18.19;54.91
79362;BME280;68830;47.566;19.012;2023-04-24T10:53:50;98934.81;;;18.08;53.87
79362;BME280;68830;47.566;19.012;2023-04-24T10:56:52;98935.91;;;18.18;53.73
79362;BME280;68830;47.566;19.012;2023-04-24T11:00:13;98948.34;;;18.13;53.65
79362;BME280;68830;47.566;19.012;2023-04-24T11:03:27;98899.88;;;17.78;54.18
79362;BME280;68830;47.566;19.012;2023-04-24T11:06:31;98950.06;;;18.07;54.79
79362;BME280;68830;47.566;19.012;2023-04-24T11:09:34;98946.63;;;18.00;54.93
79362;BME280;68830;47.566;19.012;2023-04-24T11:12:37;98923.84;;;17.66;57.19
79362;BME280;68830;47.566;19.012;2023-04-24T11:15:41;98925.09;;;17.63;61.28
79362;BME280;68830;47.566;19.012;2023-04-24T11:18:45;98935.22;;;17.61;59.74
79362;BME280;68830;47.566;19.012;2023-04-24T11:21:49;98946.81;;;17.80;59.93
79362;BME280;68830;47.566;19.012;2023-04-24T11:24:59;98932.16;;;17.83;56.57
79362;BME280;68830;47.566;19.012;2023-04-24T11:28:04;98928.84;;;18.06;56.37
79362;BME280;68830;47.566;19.012;2023-04-24T11:31:34;98928.25;;;18.22;55.83
79362;BME280;68830;47.566;19.012;2023-04-24T11:34:39;98926.31;;;18.11;55.33
79362;BME280;68830;47.566;19.012;2023-04-24T11:37:42;98922.22;;;18.08;56.13
79362;BME280;68830;47.566;19.012;2023-04-24T11:40:45;98912.75;;;18.06;54.76
79362;BME280;68830;47.566;19.012;2023-04-24T11:43:48;98910.00;;;18.31;56.48
79362;BME280;68830;47.566;19.012;2023-04-24T11:46:50;98910.59;;;18.33;54.85
79362;BME280;68830;47.566;19.012;2023-04-24T11:49:54;98910.47;;;18.46;53.92
79362;BME280;68830;47.566;19.012;2023-04-24T11:52:56;98904.81;;;18.54;53.52
79362;BME280;68830;47.566;19.012;2023-04-24T11:56:02;98891.06;;;18.62;54.07
79362;BME280;68830;47.566;19.012;2023-04-24T11:59:04;98896.06;;;18.59;54.51
79362;BME280;68830;47.566;19.012;2023-04-24T12:02:06;98901.59;;;18.64;54.24
79362;BME280;68830;47.566;19.012;2023-04-24T12:05:19;98886.63;;;18.56;54.77
79362;BME280;68830;47.566;19.012;2023-04-24T12:08:27;98888.03;;;18.59;54.35
79362;BME280;68830;47.566;19.012;2023-04-24T12:11:30;98882.72;;;18.52;55.16
79362;BME280;68830;47.566;19.012;2023-04-24T12:14:32;98887.81;;;18.42;55.75
79362;BME280;68830;47.566;19.012;2023-04-24T12:17:35;98868.78;;;18.13;56.59
79362;BME280;68830;47.566;19.012;2023-04-24T12:20:40;98886.41;;;18.03;57.54
79362;BME280;68830;47.566;19.012;2023-04-24T12:23:43;98884.31;;;17.86;58.74
79362;BME280;68830;47.566;19.012;2023-04-24T12:26:45;98875.31;;;17.81;58.07
79362;BME280;68830;47.566;19.012;2023-04-24T12:29:51;98880.19;;;17.66;61.73
79362;BME280;68830;47.566;19.012;2023-04-24T12:32:53;98870.47;;;17.46;61.25
79362;BME280;68830;47.566;19.012;2023-04-24T12:35:58;98862.97;;;17.30;61.83
79362;BME280;68830;47.566;19.012;2023-04-24T12:39:00;98871.31;;;17.15;65.78
79362;BME280;68830;47.566;19.012;2023-04-24T12:42:03;98880.38;;;16.89;70.58
79362;BME280;68830;47.566;19.012;2023-04-24T12:45:06;98872.50;;;16.94;69.52
79362;BME280;68830;47.566;19.012;2023-04-24T12:48:09;98867.72;;;16.71;69.04
79362;BME280;68830;47.566;19.012;2023-04-24T12:51:12;98876.28;;;16.87;65.25
79362;BME280;68830;47.566;19.012;2023-04-24T12:54:15;98843.16;;;16.88;63.54
79362;BME280;68830;47.566;19.012;2023-04-24T12:57:17;98861.13;;;17.06;65.61
79362;BME280;68830;47.566;19.012;2023-04-24T13:00:19;98855.22;;;17.22;65.52
79362;BME280;68830;47.566;19.012;2023-04-24T13:03:22;98852.44;;;17.35;64.33
79362;BME280;68830;47.566;19.012;2023-04-24T13:06:25;98857.50;;;17.43;61.68
79362;BME280;68830;47.566;19.012;2023-04-24T13:09:28;98840.47;;;17.38;65.32
79362;BME280;68830;47.566;19.012;2023-04-24T13:12:30;98815.94;;;17.41;56.79
79362;BME280;68830;47.566;19.012;2023-04-24T13:15:32;98839.19;;;17.47;60.69
79362;BME280;68830;47.566;19.012;2023-04-24T13:18:35;98827.19;;;17.49;62.55
79362;BME280;68830;47.566;19.012;2023-04-24T13:21:38;98831.38;;;17.63;58.74
79362;BME280;68830;47.566;19.012;2023-04-24T13:24:41;98813.63;;;17.69;59.95
79362;BME280;68830;47.566;19.012;2023-04-24T13:27:43;98819.91;;;17.81;56.04
79362;BME280;68830;47.566;19.012;2023-04-24T13:30:45;98804.19;;;17.85;55.96
79362;BME280;68830;47.566;19.012;2023-04-24T13:33:48;98822.09;;;17.66;60.11
79362;BME280;68830;47.566;19.012;2023-04-24T13:36:53;98814.69;;;17.68;53.97
79362;BME280;68830;47.566;19.012;2023-04-24T13:39:56;98800.50;;;17.61;57.83
79362;BME280;68830;47.566;19.012;2023-04-24T13:42:58;98784.59;;;17.48;57.34
79362;BME280;68830;47.566;19.012;2023-04-24T13:45:59;98819.97;;;17.31;59.11
79362;BME280;68830;47.566;19.012;2023-04-24T13:49:05;98788.56;;;16.95;61.01
79362;BME280;68830;47.566;19.012;2023-04-24T13:52:08;98827.53;;;16.85;62.04
79362;BME280;68830;47.566;19.012;2023-04-24T13:55:12;98806.47;;;16.70;62.27
79362;BME280;68830;47.566;19.012;2023-04-24T13:58:13;98825.59;;;16.60;66.53
79362;BME280;68830;47.566;19.012;2023-04-24T14:01:16;98829.97;;;16.10;70.89
79362;BME280;68830;47.566;19.012;2023-04-24T14:04:19;98831.53;;;15.66;75.03
79362;BME280;68830;47.566;19.012;2023-04-24T14:07:22;98836.03;;;15.52;78.62
79362;BME280;68830;47.566;19.012;2023-04-24T14:10:25;98829.94;;;15.19;79.66
79362;BME280;68830;47.566;19.012;2023-04-24T14:13:38;98844.28;;;15.24;79.52
79362;BME280;68830;47.566;19.012;2023-04-24T14:16:42;98804.69;;;14.95;79.35
79362;BME280;68830;47.566;19.012;2023-04-24T14:19:44;98808.56;;;14.73;79.74
79362;BME280;68830;47.566;19.012;2023-04-24T14:22:46;98807.53;;;14.60;80.73
79362;BME280;68830;47.566;19.012;2023-04-24T14:25:48;98841.34;;;14.60;82.30
79362;BME280;68830;47.566;19.012;2023-04-24T14:28:54;98851.00;;;14.74;83.16
79362;BME280;68830;47.566;19.012;2023-04-24T14:32:14;98844.41;;;14.70;83.09
79362;BME280;68830;47.566;19.012;2023-04-24T14:35:16;98821.47;;;14.56;83.84
79362;BME280;68830;47.566;19.012;2023-04-24T14:38:18;98812.75;;;14.27;83.20
79362;BME280;68830;47.566;19.012;2023-04-24T14:41:20;98808.81;;;14.23;81.51
79362;BME280;68830;47.566;19.012;2023-04-24T14:44:24;98831.59;;;14.32;80.91
79362;BME280;68830;47.566;19.012;2023-04-24T14:47:26;98815.63;;;14.32;81.18
79362;BME280;68830;47.566;19.012;2023-04-24T14:50:28;98805.38;;;14.29;79.96
79362;BME280;68830;47.566;19.012;2023-04-24T14:53:30;98804.00;;;14.53;81.05
79362;BME280;68830;47.566;19.012;2023-04-24T14:56:32;98812.13;;;14.39;81.34
79362;BME280;68830;47.566;19.012;2023-04-24T14:59:36;98827.59;;;14.56;79.59
79362;BME280;68830;47.566;19.012;2023-04-24T15:02:38;98786.59;;;14.44;78.01
79362;BME280;68830;47.566;19.012;2023-04-24T15:05:43;98790.91;;;14.45;77.40
79362;BME280;68830;47.566;19.012;2023-04-24T15:08:46;98866.59;;;14.84;76.67
79362;BME280;68830;47.566;19.012;2023-04-24T15:11:51;98797.41;;;14.43;76.66
79362;BME280;68830;47.566;19.012;2023-04-24T15:14:54;98816.78;;;14.71;79.75
79362;BME280;68830;47.566;19.012;2023-04-24T15:17:56;98790.25;;;14.43;78.44
79362;BME280;68830;47.566;19.012;2023-04-24T15:20:58;98831.50;;;14.60;77.90
79362;BME280;68830;47.566;19.012;2023-04-24T15:24:00;98803.81;;;14.48;76.03
79362;BME280;68830;47.566;19.012;2023-04-24T15:27:02;98804.03;;;14.60;77.62
79362;BME280;68830;47.566;19.012;2023-04-24T15:30:07;98849.19;;;14.88;76.25
79362;BME280;68830;47.566;19.012;2023-04-24T15:33:10;98803.41;;;14.45;76.58
79362;BME280;68830;47.566;19.012;2023-04-24T15:36:12;98803.78;;;14.42;77.34
79362;BME280;68830;47.566;19.012;2023-04-24T15:39:14;98841.72;;;14.50;77.15
79362;BME280;68830;47.566;19.012;2023-04-24T15:42:16;98848.09;;;14.62;77.51
79362;BME280;68830;47.566;19.012;2023-04-24T15:45:19;98809.06;;;14.28;77.59
79362;BME280;68830;47.566;19.012;2023-04-24T15:48:21;98851.97;;;14.47;75.87
79362;BME280;68830;47.566;19.012;2023-04-24T15:51:23;98822.56;;;14.27;76.05
79362;BME280;68830;47.566;19.012;2023-04-24T15:54:25;98830.78;;;14.32;75.53
79362;BME280;68830;47.566;19.012;2023-04-24T15:57:27;98838.75;;;14.25;76.75